sensor_id;sensor_type;location;lat;lon;timestamp;P1;durP1;ratioP1;P2;durP2;ratioP2
51438;SDS011;38816;51.142;-0.974;2022-12-18T00:02:03;59.28;;;17.58;;
51438;SDS011;38816;51.142;-0.974;2022-12-18T00:04:29;56.28;;;17.63;;
51438;SDS011;38816;51.142;-0.974;2022-12-18T00:06:55;50.92;;;17.58;;
51438;SDS011;38816;51.142;-0.974;2022-12-18T00:09:21;53.40;;;17.65;;
51438;SDS011;38816;51.142;-0.974;2022-12-18T00:11:46;48.40;;;17.15;;
51438;SDS011;38816;51.142;-0.974;2022-12-18T00:14:12;53.53;;;17.35;;
51438;SDS011;38816;51.142;-0.974;2022-12-18T00:16:38;47.53;;;17.13;;
51438;SDS011;38816;51.142;-0.974;2022-12-18T00:19:04;50.60;;;15.60;;
51438;SDS011;38816;51.142;-0.974;2022-12-18T00:21:32;53.88;;;15.95;;
51438;SDS011;38816;51.142;-0.974;2022-12-18T00:23:59;52.75;;;16.40;;
51438;SDS011;38816;51.142;-0.974;2022-12-18T00:26:29;47.45;;;15.82;;
51438;SDS011;38816;51.142;-0.974;2022-12-18T00:28:59;46.25;;;16.05;;
51438;SDS011;38816;51.142;-0.974;2022-12-18T00:31:26;47.65;;;16.13;;
51438;SDS011;38816;51.142;-0.974;2022-12-18T00:33:53;45.40;;;16.13;;
51438;SDS011;38816;51.142;-0.974;2022-12-18T00:36:20;45.30;;;15.00;;
51438;SDS011;38816;51.142;-0.974;2022-12-18T00:38:48;50.42;;;15.95;;
51438;SDS011;38816;51.142;-0.974;2022-12-18T00:41:15;42.05;;;15.00;;
51438;SDS011;38816;51.142;-0.974;2022-12-18T00:44:01;43.67;;;15.43;;
51438;SDS011;38816;51.142;-0.974;2022-12-18T00:46:27;54.35;;;15.68;;
51438;SDS011;38816;51.142;-0.974;2022-12-18T00:48:52;46.50;;;15.88;;
51438;SDS011;38816;51.142;-0.974;2022-12-18T00:51:18;43.88;;;16.13;;
51438;SDS011;38816;51.142;-0.974;2022-12-18T00:53:43;42.42;;;15.02;;
51438;SDS011;38816;51.142;-0.974;2022-12-18T00:56:09;46.33;;;16.75;;
51438;SDS011;38816;51.142;-0.974;2022-12-18T00:58:34;48.42;;;15.27;;
51438;SDS011;38816;51.142;-0.974;2022-12-18T01:00:59;46.42;;;14.95;;
51438;SDS011;38816;51.142;-0.974;2022-12-18T01:03:25;53.08;;;15.23;;
51438;SDS011;38816;51.142;-0.974;2022-12-18T01:05:50;47.42;;;15.30;;
51438;SDS011;38816;51.142;-0.974;2022-12-18T01:08:15;45.53;;;15.85;;
51438;SDS011;38816;51.142;-0.974;2022-12-18T01:10:41;43.60;;;15.50;;
51438;SDS011;38816;51.142;-0.974;2022-12-18T01:13:06;35.40;;;14.20;;
51438;SDS011;38816;51.142;-0.974;2022-12-18T01:15:32;50.67;;;15.32;;
51438;SDS011;38816;51.142;-0.974;2022-12-18T01:17:57;47.05;;;15.45;;
51438;SDS011;38816;51.142;-0.974;2022-12-18T01:20:22;41.83;;;15.15;;
51438;SDS011;38816;51.142;-0.974;2022-12-18T01:22:48;37.35;;;14.88;;
51438;SDS011;38816;51.142;-0.974;2022-12-18T01:25:13;43.95;;;14.45;;
51438;SDS011;38816;51.142;-0.974;2022-12-18T01:27:38;54.60;;;15.52;;
51438;SDS011;38816;51.142;-0.974;2022-12-18T01:30:04;46.30;;;15.15;;
51438;SDS011;38816;51.142;-0.974;2022-12-18T01:32:30;45.78;;;15.25;;
51438;SDS011;38816;51.142;-0.974;2022-12-18T01:34:56;48.53;;;15.18;;
51438;SDS011;38816;51.142;-0.974;2022-12-18T01:37:22;43.55;;;14.88;;
51438;SDS011;38816;51.142;-0.974;2022-12-18T01:39:47;51.35;;;15.52;;
51438;SDS011;38816;51.142;-0.974;2022-12-18T01:42:14;49.55;;;16.20;;
51438;SDS011;38816;51.142;-0.974;2022-12-18T01:44:54;49.97;;;16.42;;
51438;SDS011;38816;51.142;-0.974;2022-12-18T01:49:58;48.10;;;15.35;;
51438;SDS011;38816;51.142;-0.974;2022-12-18T01:52:28;49.67;;;14.48;;
51438;SDS011;38816;51.142;-0.974;2022-12-18T01:54:57;44.13;;;16.15;;
51438;SDS011;38816;51.142;-0.974;2022-12-18T01:57:24;43.53;;;15.60;;
51438;SDS011;38816;51.142;-0.974;2022-12-18T01:59:52;44.38;;;15.63;;
51438;SDS011;38816;51.142;-0.974;2022-12-18T02:02:19;49.42;;;15.75;;
51438;SDS011;38816;51.142;-0.974;2022-12-18T02:04:46;38.75;;;15.38;;
51438;SDS011;38816;51.142;-0.974;2022-12-18T02:10:13;43.78;;;15.98;;
51438;SDS011;38816;51.142;-0.974;2022-12-18T02:12:45;49.97;;;16.02;;
51438;SDS011;38816;51.142;-0.974;2022-12-18T02:17:59;53.53;;;15.82;;
51438;SDS011;38816;51.142;-0.974;2022-12-18T02:20:38;52.10;;;16.45;;
51438;SDS011;38816;51.142;-0.974;2022-12-18T02:29:53;53.65;;;16.73;;
51438;SDS011;38816;51.142;-0.974;2022-12-18T02:31:59;50.75;;;16.17;;
51438;SDS011;38816;51.142;-0.974;2022-12-18T02:34:28;64.90;;;18.23;;
51438;SDS011;38816;51.142;-0.974;2022-12-18T02:36:56;57.25;;;18.98;;
51438;SDS011;38816;51.142;-0.974;2022-12-18T02:39:23;48.33;;;16.88;;
51438;SDS011;38816;51.142;-0.974;2022-12-18T02:41:51;57.63;;;18.15;;
51438;SDS011;38816;51.142;-0.974;2022-12-18T02:44:17;52.00;;;17.13;;
51438;SDS011;38816;51.142;-0.974;2022-12-18T02:46:48;61.42;;;17.17;;
51438;SDS011;38816;51.142;-0.974;2022-12-18T02:58:08;57.45;;;17.30;;
51438;SDS011;38816;51.142;-0.974;2022-12-18T03:00:18;55.05;;;17.00;;
51438;SDS011;38816;51.142;-0.974;2022-12-18T03:02:56;60.25;;;18.63;;
51438;SDS011;38816;51.142;-0.974;2022-12-18T03:05:30;62.95;;;18.42;;
51438;SDS011;38816;51.142;-0.974;2022-12-18T03:08:07;68.00;;;19.05;;
51438;SDS011;38816;51.142;-0.974;2022-12-18T03:11:11;63.30;;;18.60;;
51438;SDS011;38816;51.142;-0.974;2022-12-18T03:13:39;67.28;;;19.52;;
51438;SDS011;38816;51.142;-0.974;2022-12-18T03:16:18;64.43;;;18.95;;
51438;SDS011;38816;51.142;-0.974;2022-12-18T03:18:54;59.97;;;19.27;;
51438;SDS011;38816;51.142;-0.974;2022-12-18T03:21:26;85.15;;;20.55;;
51438;SDS011;38816;51.142;-0.974;2022-12-18T03:24:06;77.07;;;21.02;;
51438;SDS011;38816;51.142;-0.974;2022-12-18T03:26:34;81.60;;;21.00;;
51438;SDS011;38816;51.142;-0.974;2022-12-18T03:29:06;75.03;;;21.58;;
51438;SDS011;38816;51.142;-0.974;2022-12-18T03:31:36;75.22;;;21.20;;
51438;SDS011;38816;51.142;-0.974;2022-12-18T03:34:05;75.75;;;21.13;;
51438;SDS011;38816;51.142;-0.974;2022-12-18T03:36:38;76.28;;;21.52;;
51438;SDS011;38816;51.142;-0.974;2022-12-18T03:39:03;75.45;;;20.88;;
51438;SDS011;38816;51.142;-0.974;2022-12-18T03:41:32;76.72;;;21.55;;
51438;SDS011;38816;51.142;-0.974;2022-12-18T03:47:22;67.55;;;20.23;;
51438;SDS011;38816;51.142;-0.974;2022-12-18T03:50:08;77.50;;;19.92;;
51438;SDS011;38816;51.142;-0.974;2022-12-18T03:52:36;77.47;;;20.40;;
51438;SDS011;38816;51.142;-0.974;2022-12-18T03:55:18;70.63;;;18.33;;
51438;SDS011;38816;51.142;-0.974;2022-12-18T03:57:46;71.85;;;20.80;;
51438;SDS011;38816;51.142;-0.974;2022-12-18T04:00:14;70.97;;;20.63;;
51438;SDS011;38816;51.142;-0.974;2022-12-18T04:02:51;75.20;;;19.65;;
51438;SDS011;38816;51.142;-0.974;2022-12-18T04:05:19;68.30;;;19.70;;
51438;SDS011;38816;51.142;-0.974;2022-12-18T04:07:47;67.28;;;19.95;;
51438;SDS011;38816;51.142;-0.974;2022-12-18T04:10:16;64.82;;;19.58;;
51438;SDS011;38816;51.142;-0.974;2022-12-18T04:12:42;75.55;;;19.48;;
51438;SDS011;38816;51.142;-0.974;2022-12-18T04:15:08;75.65;;;20.10;;
51438;SDS011;38816;51.142;-0.974;2022-12-18T04:17:35;87.85;;;20.10;;
51438;SDS011;38816;51.142;-0.974;2022-12-18T04:20:00;76.63;;;20.48;;
51438;SDS011;38816;51.142;-0.974;2022-12-18T04:22:26;70.75;;;20.48;;
51438;SDS011;38816;51.142;-0.974;2022-12-18T04:24:51;73.35;;;20.25;;
51438;SDS011;38816;51.142;-0.974;2022-12-18T04:27:16;70.22;;;19.15;;
51438;SDS011;38816;51.142;-0.974;2022-12-18T04:29:42;78.68;;;19.77;;
51438;SDS011;38816;51.142;-0.974;2022-12-18T04:32:07;67.97;;;19.77;;
51438;SDS011;38816;51.142;-0.974;2022-12-18T04:34:33;70.47;;;19.70;;
51438;SDS011;38816;51.142;-0.974;2022-12-18T04:36:59;70.43;;;19.88;;
51438;SDS011;38816;51.142;-0.974;2022-12-18T04:39:24;73.90;;;19.30;;
51438;SDS011;38816;51.142;-0.974;2022-12-18T04:41:49;70.55;;;19.75;;
51438;SDS011;38816;51.142;-0.974;2022-12-18T04:44:15;69.50;;;19.63;;
51438;SDS011;38816;51.142;-0.974;2022-12-18T04:46:40;67.93;;;18.73;;
51438;SDS011;38816;51.142;-0.974;2022-12-18T04:49:06;65.70;;;19.58;;
51438;SDS011;38816;51.142;-0.974;2022-12-18T04:51:31;62.63;;;17.38;;
51438;SDS011;38816;51.142;-0.974;2022-12-18T04:53:57;60.38;;;18.80;;
51438;SDS011;38816;51.142;-0.974;2022-12-18T04:56:22;72.43;;;19.17;;
51438;SDS011;38816;51.142;-0.974;2022-12-18T04:58:48;65.13;;;18.70;;
51438;SDS011;38816;51.142;-0.974;2022-12-18T05:03:54;61.42;;;18.40;;
51438;SDS011;38816;51.142;-0.974;2022-12-18T05:06:19;58.80;;;16.85;;
51438;SDS011;38816;51.142;-0.974;2022-12-18T05:08:44;66.47;;;17.92;;
51438;SDS011;38816;51.142;-0.974;2022-12-18T05:11:11;54.00;;;16.52;;
51438;SDS011;38816;51.142;-0.974;2022-12-18T05:13:40;58.28;;;16.52;;
51438;SDS011;38816;51.142;-0.974;2022-12-18T05:16:07;64.40;;;17.23;;
51438;SDS011;38816;51.142;-0.974;2022-12-18T05:18:32;67.32;;;17.20;;
51438;SDS011;38816;51.142;-0.974;2022-12-18T05:20:58;56.42;;;16.90;;
51438;SDS011;38816;51.142;-0.974;2022-12-18T05:23:24;59.60;;;17.35;;
51438;SDS011;38816;51.142;-0.974;2022-12-18T05:25:53;59.40;;;15.95;;
51438;SDS011;38816;51.142;-0.974;2022-12-18T05:28:20;62.50;;;15.57;;
51438;SDS011;38816;51.142;-0.974;2022-12-18T05:30:49;62.72;;;15.82;;
51438;SDS011;38816;51.142;-0.974;2022-12-18T05:33:19;47.83;;;15.82;;
51438;SDS011;38816;51.142;-0.974;2022-12-18T05:35:53;59.05;;;16.55;;
51438;SDS011;38816;51.142;-0.974;2022-12-18T05:38:20;48.70;;;15.13;;
51438;SDS011;38816;51.142;-0.974;2022-12-18T05:40:49;49.28;;;15.43;;
51438;SDS011;38816;51.142;-0.974;2022-12-18T05:43:16;53.42;;;15.68;;
51438;SDS011;38816;51.142;-0.974;2022-12-18T05:45:42;45.42;;;15.65;;
51438;SDS011;38816;51.142;-0.974;2022-12-18T05:48:07;50.33;;;14.68;;
51438;SDS011;38816;51.142;-0.974;2022-12-18T05:50:34;50.17;;;14.63;;
51438;SDS011;38816;51.142;-0.974;2022-12-18T05:53:04;52.65;;;14.50;;
51438;SDS011;38816;51.142;-0.974;2022-12-18T05:55:32;41.65;;;14.20;;
51438;SDS011;38816;51.142;-0.974;2022-12-18T05:57:59;44.67;;;14.95;;
51438;SDS011;38816;51.142;-0.974;2022-12-18T06:00:25;46.92;;;14.52;;
51438;SDS011;38816;51.142;-0.974;2022-12-18T06:02:50;49.97;;;14.45;;
51438;SDS011;38816;51.142;-0.974;2022-12-18T06:05:15;45.22;;;13.98;;
51438;SDS011;38816;51.142;-0.974;2022-12-18T06:07:41;42.88;;;13.80;;
51438;SDS011;38816;51.142;-0.974;2022-12-18T06:10:06;48.15;;;15.52;;
51438;SDS011;38816;51.142;-0.974;2022-12-18T06:12:32;40.95;;;14.20;;
51438;SDS011;38816;51.142;-0.974;2022-12-18T06:14:58;54.55;;;14.85;;
51438;SDS011;38816;51.142;-0.974;2022-12-18T06:17:27;41.45;;;14.52;;
51438;SDS011;38816;51.142;-0.974;2022-12-18T06:19:54;42.53;;;14.05;;
51438;SDS011;38816;51.142;-0.974;2022-12-18T06:22:20;46.13;;;13.90;;
51438;SDS011;38816;51.142;-0.974;2022-12-18T06:24:45;45.10;;;13.57;;
51438;SDS011;38816;51.142;-0.974;2022-12-18T06:27:11;41.47;;;13.80;;
51438;SDS011;38816;51.142;-0.974;2022-12-18T06:29:36;49.80;;;13.68;;
51438;SDS011;38816;51.142;-0.974;2022-12-18T06:32:01;50.13;;;14.80;;
51438;SDS011;38816;51.142;-0.974;2022-12-18T06:34:27;46.35;;;14.05;;
51438;SDS011;38816;51.142;-0.974;2022-12-18T06:36:52;44.60;;;14.13;;
51438;SDS011;38816;51.142;-0.974;2022-12-18T06:39:17;44.97;;;14.20;;
51438;SDS011;38816;51.142;-0.974;2022-12-18T06:41:43;44.45;;;13.00;;
51438;SDS011;38816;51.142;-0.974;2022-12-18T06:44:08;40.83;;;13.27;;
51438;SDS011;38816;51.142;-0.974;2022-12-18T06:46:33;44.72;;;13.85;;
51438;SDS011;38816;51.142;-0.974;2022-12-18T06:48:59;36.03;;;13.50;;
51438;SDS011;38816;51.142;-0.974;2022-12-18T06:51:24;40.97;;;13.45;;
51438;SDS011;38816;51.142;-0.974;2022-12-18T06:53:50;38.25;;;13.75;;
51438;SDS011;38816;51.142;-0.974;2022-12-18T06:56:16;39.67;;;13.57;;
51438;SDS011;38816;51.142;-0.974;2022-12-18T06:58:41;41.20;;;13.40;;
51438;SDS011;38816;51.142;-0.974;2022-12-18T07:01:08;42.72;;;13.43;;
51438;SDS011;38816;51.142;-0.974;2022-12-18T07:03:35;51.90;;;13.77;;
51438;SDS011;38816;51.142;-0.974;2022-12-18T07:06:01;35.47;;;13.15;;
51438;SDS011;38816;51.142;-0.974;2022-12-18T07:08:29;36.15;;;14.07;;
51438;SDS011;38816;51.142;-0.974;2022-12-18T07:10:55;41.22;;;14.13;;
51438;SDS011;38816;51.142;-0.974;2022-12-18T07:13:20;38.70;;;13.25;;
51438;SDS011;38816;51.142;-0.974;2022-12-18T07:15:46;40.80;;;13.65;;
51438;SDS011;38816;51.142;-0.974;2022-12-18T07:18:11;38.45;;;12.07;;
51438;SDS011;38816;51.142;-0.974;2022-12-18T07:20:37;33.17;;;12.27;;
51438;SDS011;38816;51.142;-0.974;2022-12-18T07:23:03;40.58;;;13.30;;
51438;SDS011;38816;51.142;-0.974;2022-12-18T07:25:30;41.03;;;14.20;;
51438;SDS011;38816;51.142;-0.974;2022-12-18T07:27:58;34.58;;;13.48;;
51438;SDS011;38816;51.142;-0.974;2022-12-18T07:30:23;39.17;;;15.00;;
51438;SDS011;38816;51.142;-0.974;2022-12-18T07:32:49;36.70;;;13.85;;
51438;SDS011;38816;51.142;-0.974;2022-12-18T07:35:17;41.28;;;13.70;;
51438;SDS011;38816;51.142;-0.974;2022-12-18T07:37:43;30.75;;;13.00;;
51438;SDS011;38816;51.142;-0.974;2022-12-18T07:40:09;31.92;;;12.98;;
51438;SDS011;38816;51.142;-0.974;2022-12-18T07:42:35;36.70;;;14.05;;
51438;SDS011;38816;51.142;-0.974;2022-12-18T07:45:02;31.58;;;12.40;;
51438;SDS011;38816;51.142;-0.974;2022-12-18T07:47:28;36.20;;;12.90;;
51438;SDS011;38816;51.142;-0.974;2022-12-18T07:49:53;34.92;;;12.55;;
51438;SDS011;38816;51.142;-0.974;2022-12-18T07:52:19;42.03;;;12.63;;
51438;SDS011;38816;51.142;-0.974;2022-12-18T07:54:45;39.20;;;12.60;;
51438;SDS011;38816;51.142;-0.974;2022-12-18T07:57:10;29.88;;;11.25;;
51438;SDS011;38816;51.142;-0.974;2022-12-18T07:59:36;34.80;;;12.35;;
51438;SDS011;38816;51.142;-0.974;2022-12-18T08:02:02;33.60;;;11.90;;
51438;SDS011;38816;51.142;-0.974;2022-12-18T08:04:28;31.65;;;12.02;;
51438;SDS011;38816;51.142;-0.974;2022-12-18T08:06:53;30.75;;;12.05;;
51438;SDS011;38816;51.142;-0.974;2022-12-18T08:09:19;29.83;;;11.85;;
51438;SDS011;38816;51.142;-0.974;2022-12-18T08:11:44;29.50;;;10.95;;
51438;SDS011;38816;51.142;-0.974;2022-12-18T08:14:10;27.67;;;11.02;;
51438;SDS011;38816;51.142;-0.974;2022-12-18T08:16:35;24.58;;;11.02;;
51438;SDS011;38816;51.142;-0.974;2022-12-18T08:19:01;27.35;;;11.27;;
51438;SDS011;38816;51.142;-0.974;2022-12-18T08:21:27;31.85;;;11.80;;
51438;SDS011;38816;51.142;-0.974;2022-12-18T08:23:56;26.40;;;11.45;;
51438;SDS011;38816;51.142;-0.974;2022-12-18T08:26:23;32.78;;;12.73;;
51438;SDS011;38816;51.142;-0.974;2022-12-18T08:28:50;28.10;;;11.70;;
51438;SDS011;38816;51.142;-0.974;2022-12-18T08:31:15;25.98;;;12.15;;
51438;SDS011;38816;51.142;-0.974;2022-12-18T08:33:41;40.38;;;12.93;;
51438;SDS011;38816;51.142;-0.974;2022-12-18T08:36:07;35.80;;;14.23;;
51438;SDS011;38816;51.142;-0.974;2022-12-18T08:38:34;36.08;;;13.50;;
51438;SDS011;38816;51.142;-0.974;2022-12-18T08:41:00;32.70;;;13.98;;
51438;SDS011;38816;51.142;-0.974;2022-12-18T08:43:25;31.95;;;13.75;;
51438;SDS011;38816;51.142;-0.974;2022-12-18T08:46:09;40.92;;;14.00;;
51438;SDS011;38816;51.142;-0.974;2022-12-18T08:48:35;39.35;;;15.82;;
51438;SDS011;38816;51.142;-0.974;2022-12-18T08:51:00;32.92;;;13.90;;
51438;SDS011;38816;51.142;-0.974;2022-12-18T08:53:26;34.92;;;15.60;;
51438;SDS011;38816;51.142;-0.974;2022-12-18T08:55:52;38.50;;;16.45;;
51438;SDS011;38816;51.142;-0.974;2022-12-18T08:58:18;34.13;;;16.58;;
51438;SDS011;38816;51.142;-0.974;2022-12-18T09:00:44;36.25;;;16.00;;
51438;SDS011;38816;51.142;-0.974;2022-12-18T09:03:13;37.75;;;17.13;;
51438;SDS011;38816;51.142;-0.974;2022-12-18T09:05:40;34.65;;;17.65;;
51438;SDS011;38816;51.142;-0.974;2022-12-18T09:08:05;44.58;;;16.58;;
51438;SDS011;38816;51.142;-0.974;2022-12-18T09:10:31;39.85;;;17.55;;
51438;SDS011;38816;51.142;-0.974;2022-12-18T09:12:57;41.90;;;17.08;;
51438;SDS011;38816;51.142;-0.974;2022-12-18T09:15:22;38.42;;;17.42;;
51438;SDS011;38816;51.142;-0.974;2022-12-18T09:17:48;37.30;;;17.08;;
51438;SDS011;38816;51.142;-0.974;2022-12-18T09:20:14;39.42;;;17.73;;
51438;SDS011;38816;51.142;-0.974;2022-12-18T09:22:40;38.58;;;17.08;;
51438;SDS011;38816;51.142;-0.974;2022-12-18T09:25:06;40.95;;;17.33;;
51438;SDS011;38816;51.142;-0.974;2022-12-18T09:27:33;36.60;;;17.73;;
51438;SDS011;38816;51.142;-0.974;2022-12-18T09:29:58;43.42;;;18.50;;
51438;SDS011;38816;51.142;-0.974;2022-12-18T09:32:24;40.90;;;18.50;;
51438;SDS011;38816;51.142;-0.974;2022-12-18T09:34:49;34.38;;;16.95;;
51438;SDS011;38816;51.142;-0.974;2022-12-18T09:37:15;36.03;;;16.83;;
51438;SDS011;38816;51.142;-0.974;2022-12-18T09:39:40;42.72;;;17.65;;
51438;SDS011;38816;51.142;-0.974;2022-12-18T09:42:05;40.72;;;17.90;;
51438;SDS011;38816;51.142;-0.974;2022-12-18T09:44:39;35.22;;;17.33;;
51438;SDS011;38816;51.142;-0.974;2022-12-18T09:49:52;34.30;;;16.60;;
51438;SDS011;38816;51.142;-0.974;2022-12-18T09:57:31;35.53;;;17.45;;
51438;SDS011;38816;51.142;-0.974;2022-12-18T10:00:06;44.95;;;18.35;;
51438;SDS011;38816;51.142;-0.974;2022-12-18T10:02:34;35.83;;;18.88;;
51438;SDS011;38816;51.142;-0.974;2022-12-18T10:08:03;48.45;;;19.20;;
51438;SDS011;38816;51.142;-0.974;2022-12-18T10:16:12;39.30;;;17.08;;
51438;SDS011;38816;51.142;-0.974;2022-12-18T10:21:15;42.58;;;18.60;;
51438;SDS011;38816;51.142;-0.974;2022-12-18T10:23:48;48.72;;;18.27;;
51438;SDS011;38816;51.142;-0.974;2022-12-18T10:26:22;40.83;;;19.40;;
51438;SDS011;38816;51.142;-0.974;2022-12-18T10:28:49;42.75;;;18.17;;
51438;SDS011;38816;51.142;-0.974;2022-12-18T10:31:23;38.97;;;18.80;;
51438;SDS011;38816;51.142;-0.974;2022-12-18T10:33:49;42.35;;;17.90;;
51438;SDS011;38816;51.142;-0.974;2022-12-18T10:36:15;45.00;;;18.52;;
51438;SDS011;38816;51.142;-0.974;2022-12-18T10:38:41;44.80;;;18.27;;
51438;SDS011;38816;51.142;-0.974;2022-12-18T10:41:23;46.75;;;19.58;;
51438;SDS011;38816;51.142;-0.974;2022-12-18T10:44:10;42.58;;;20.35;;
51438;SDS011;38816;51.142;-0.974;2022-12-18T10:46:42;44.97;;;19.00;;
51438;SDS011;38816;51.142;-0.974;2022-12-18T10:49:19;42.05;;;19.45;;
51438;SDS011;38816;51.142;-0.974;2022-12-18T10:51:48;43.08;;;18.23;;
51438;SDS011;38816;51.142;-0.974;2022-12-18T10:54:15;43.95;;;18.85;;
51438;SDS011;38816;51.142;-0.974;2022-12-18T10:56:44;44.95;;;20.27;;
51438;SDS011;38816;51.142;-0.974;2022-12-18T10:59:11;45.53;;;20.75;;
51438;SDS011;38816;51.142;-0.974;2022-12-18T11:01:45;43.53;;;19.65;;
51438;SDS011;38816;51.142;-0.974;2022-12-18T11:04:16;40.20;;;18.67;;
51438;SDS011;38816;51.142;-0.974;2022-12-18T11:06:52;52.47;;;19.10;;
51438;SDS011;38816;51.142;-0.974;2022-12-18T11:09:21;47.17;;;20.40;;
51438;SDS011;38816;51.142;-0.974;2022-12-18T11:11:49;45.00;;;19.30;;
51438;SDS011;38816;51.142;-0.974;2022-12-18T11:16:59;44.53;;;20.77;;
51438;SDS011;38816;51.142;-0.974;2022-12-18T11:19:34;48.25;;;22.10;;
51438;SDS011;38816;51.142;-0.974;2022-12-18T11:22:02;47.90;;;20.35;;
51438;SDS011;38816;51.142;-0.974;2022-12-18T11:24:49;44.42;;;20.83;;
51438;SDS011;38816;51.142;-0.974;2022-12-18T11:27:37;49.47;;;21.23;;
51438;SDS011;38816;51.142;-0.974;2022-12-18T11:30:08;49.88;;;20.73;;
51438;SDS011;38816;51.142;-0.974;2022-12-18T11:32:45;46.97;;;21.13;;
51438;SDS011;38816;51.142;-0.974;2022-12-18T11:38:03;45.60;;;21.05;;
51438;SDS011;38816;51.142;-0.974;2022-12-18T11:40:36;45.60;;;20.63;;
51438;SDS011;38816;51.142;-0.974;2022-12-18T11:45:41;45.63;;;20.38;;
51438;SDS011;38816;51.142;-0.974;2022-12-18T11:48:14;50.08;;;19.42;;
51438;SDS011;38816;51.142;-0.974;2022-12-18T11:53:23;48.47;;;19.30;;
51438;SDS011;38816;51.142;-0.974;2022-12-18T11:58:42;40.88;;;18.77;;
51438;SDS011;38816;51.142;-0.974;2022-12-18T12:09:39;43.10;;;17.83;;
51438;SDS011;38816;51.142;-0.974;2022-12-18T12:18:08;37.65;;;17.05;;
51438;SDS011;38816;51.142;-0.974;2022-12-18T12:26:10;35.80;;;15.93;;
51438;SDS011;38816;51.142;-0.974;2022-12-18T12:28:51;35.95;;;15.32;;
51438;SDS011;38816;51.142;-0.974;2022-12-18T12:36:47;34.13;;;15.27;;
51438;SDS011;38816;51.142;-0.974;2022-12-18T12:39:27;30.10;;;13.60;;
51438;SDS011;38816;51.142;-0.974;2022-12-18T12:41:56;30.60;;;14.38;;
51438;SDS011;38816;51.142;-0.974;2022-12-18T12:44:42;31.23;;;13.13;;
51438;SDS011;38816;51.142;-0.974;2022-12-18T12:47:16;24.00;;;11.75;;
51438;SDS011;38816;51.142;-0.974;2022-12-18T12:49:48;25.42;;;11.30;;
51438;SDS011;38816;51.142;-0.974;2022-12-18T12:52:17;23.88;;;11.25;;
51438;SDS011;38816;51.142;-0.974;2022-12-18T12:54:52;25.38;;;10.98;;
51438;SDS011;38816;51.142;-0.974;2022-12-18T12:57:20;21.63;;;10.57;;
51438;SDS011;38816;51.142;-0.974;2022-12-18T13:00:01;22.85;;;10.27;;
51438;SDS011;38816;51.142;-0.974;2022-12-18T13:08:29;17.50;;;9.90;;
51438;SDS011;38816;51.142;-0.974;2022-12-18T13:10:57;15.75;;;7.97;;
51438;SDS011;38816;51.142;-0.974;2022-12-18T13:13:49;15.50;;;8.73;;
51438;SDS011;38816;51.142;-0.974;2022-12-18T13:16:17;16.48;;;8.73;;
51438;SDS011;38816;51.142;-0.974;2022-12-18T13:18:51;17.40;;;8.63;;
51438;SDS011;38816;51.142;-0.974;2022-12-18T13:23:55;18.30;;;8.07;;
51438;SDS011;38816;51.142;-0.974;2022-12-18T13:34:09;13.88;;;7.70;;
51438;SDS011;38816;51.142;-0.974;2022-12-18T13:36:38;16.83;;;8.18;;
51438;SDS011;38816;51.142;-0.974;2022-12-18T13:41:38;16.55;;;7.90;;
51438;SDS011;38816;51.142;-0.974;2022-12-18T13:44:38;21.70;;;8.05;;
51438;SDS011;38816;51.142;-0.974;2022-12-18T13:47:00;13.55;;;7.00;;
51438;SDS011;38816;51.142;-0.974;2022-12-18T13:49:32;18.48;;;7.03;;
51438;SDS011;38816;51.142;-0.974;2022-12-18T13:52:01;13.05;;;6.32;;
51438;SDS011;38816;51.142;-0.974;2022-12-18T13:54:33;12.98;;;6.03;;
51438;SDS011;38816;51.142;-0.974;2022-12-18T13:57:01;13.57;;;6.55;;
51438;SDS011;38816;51.142;-0.974;2022-12-18T13:59:34;12.95;;;5.97;;
51438;SDS011;38816;51.142;-0.974;2022-12-18T14:02:16;13.55;;;6.40;;
51438;SDS011;38816;51.142;-0.974;2022-12-18T14:04:52;11.45;;;5.78;;
51438;SDS011;38816;51.142;-0.974;2022-12-18T14:09:48;11.93;;;5.18;;
51438;SDS011;38816;51.142;-0.974;2022-12-18T14:15:03;9.60;;;4.85;;
51438;SDS011;38816;51.142;-0.974;2022-12-18T14:17:39;9.48;;;4.72;;
51438;SDS011;38816;51.142;-0.974;2022-12-18T14:20:12;7.88;;;4.18;;
51438;SDS011;38816;51.142;-0.974;2022-12-18T14:22:39;8.73;;;4.30;;
51438;SDS011;38816;51.142;-0.974;2022-12-18T14:27:40;11.68;;;4.40;;
51438;SDS011;38816;51.142;-0.974;2022-12-18T14:30:23;11.98;;;4.40;;
51438;SDS011;38816;51.142;-0.974;2022-12-18T14:33:10;11.98;;;4.28;;
51438;SDS011;38816;51.142;-0.974;2022-12-18T14:36:22;8.93;;;4.30;;
51438;SDS011;38816;51.142;-0.974;2022-12-18T14:38:33;6.82;;;3.97;;
51438;SDS011;38816;51.142;-0.974;2022-12-18T14:43:36;6.50;;;3.45;;
51438;SDS011;38816;51.142;-0.974;2022-12-18T14:46:03;5.30;;;3.35;;
51438;SDS011;38816;51.142;-0.974;2022-12-18T14:48:48;4.68;;;3.25;;
51438;SDS011;38816;51.142;-0.974;2022-12-18T14:51:18;5.82;;;3.33;;
51438;SDS011;38816;51.142;-0.974;2022-12-18T14:53:47;6.78;;;3.13;;
51438;SDS011;38816;51.142;-0.974;2022-12-18T14:59:02;6.60;;;3.17;;
51438;SDS011;38816;51.142;-0.974;2022-12-18T15:01:39;6.22;;;3.50;;
51438;SDS011;38816;51.142;-0.974;2022-12-18T15:04:28;8.07;;;2.97;;
51438;SDS011;38816;51.142;-0.974;2022-12-18T15:07:10;3.83;;;2.72;;
51438;SDS011;38816;51.142;-0.974;2022-12-18T15:09:39;5.50;;;3.05;;
51438;SDS011;38816;51.142;-0.974;2022-12-18T15:12:26;5.30;;;2.90;;
51438;SDS011;38816;51.142;-0.974;2022-12-18T15:14:58;4.80;;;2.90;;
51438;SDS011;38816;51.142;-0.974;2022-12-18T15:17:23;6.78;;;3.10;;
51438;SDS011;38816;51.142;-0.974;2022-12-18T15:19:50;7.18;;;2.95;;
51438;SDS011;38816;51.142;-0.974;2022-12-18T15:22:19;4.50;;;2.90;;
51438;SDS011;38816;51.142;-0.974;2022-12-18T15:24:53;5.10;;;3.30;;
51438;SDS011;38816;51.142;-0.974;2022-12-18T15:32:40;7.72;;;2.60;;
51438;SDS011;38816;51.142;-0.974;2022-12-18T15:37:34;5.70;;;2.22;;
51438;SDS011;38816;51.142;-0.974;2022-12-18T15:40:00;5.13;;;2.60;;
51438;SDS011;38816;51.142;-0.974;2022-12-18T15:42:27;8.45;;;2.42;;
51438;SDS011;38816;51.142;-0.974;2022-12-18T15:45:12;14.88;;;2.55;;
51438;SDS011;38816;51.142;-0.974;2022-12-18T15:47:38;6.72;;;2.30;;
51438;SDS011;38816;51.142;-0.974;2022-12-18T15:50:04;5.05;;;2.22;;
51438;SDS011;38816;51.142;-0.974;2022-12-18T15:52:31;3.55;;;2.50;;
51438;SDS011;38816;51.142;-0.974;2022-12-18T15:55:05;5.03;;;2.80;;
51438;SDS011;38816;51.142;-0.974;2022-12-18T15:57:53;6.45;;;2.50;;
51438;SDS011;38816;51.142;-0.974;2022-12-18T16:00:19;4.80;;;2.70;;
51438;SDS011;38816;51.142;-0.974;2022-12-18T16:02:44;4.50;;;2.40;;
51438;SDS011;38816;51.142;-0.974;2022-12-18T16:05:13;5.75;;;2.63;;
51438;SDS011;38816;51.142;-0.974;2022-12-18T16:07:41;5.07;;;2.28;;
51438;SDS011;38816;51.142;-0.974;2022-12-18T16:10:07;5.50;;;2.63;;
51438;SDS011;38816;51.142;-0.974;2022-12-18T16:12:33;6.57;;;2.42;;
51438;SDS011;38816;51.142;-0.974;2022-12-18T16:14:58;7.45;;;2.30;;
51438;SDS011;38816;51.142;-0.974;2022-12-18T16:17:24;5.07;;;2.55;;
51438;SDS011;38816;51.142;-0.974;2022-12-18T16:19:49;5.28;;;2.25;;
51438;SDS011;38816;51.142;-0.974;2022-12-18T16:22:33;3.08;;;2.10;;
51438;SDS011;38816;51.142;-0.974;2022-12-18T16:27:24;5.50;;;2.50;;
51438;SDS011;38816;51.142;-0.974;2022-12-18T16:29:49;6.53;;;2.25;;
51438;SDS011;38816;51.142;-0.974;2022-12-18T16:32:19;5.30;;;2.70;;
51438;SDS011;38816;51.142;-0.974;2022-12-18T16:34:46;4.20;;;2.45;;